createdAt,value
2018-10-12T00:01:35.556Z,9.97
2018-10-12T00:04:03.825Z,8.70
2018-10-12T00:06:32.065Z,9.50
2018-10-12T00:09:00.669Z,8.50
2018-10-12T00:11:28.825Z,9.10
2018-10-12T00:13:57.013Z,9.07
2018-10-12T00:16:25.284Z,8.70
2018-10-12T00:18:53.484Z,9.33
2018-10-12T00:21:21.685Z,9.90
2018-10-12T00:23:49.909Z,10.53
2018-10-12T00:26:18.108Z,10.70
2018-10-12T00:28:46.441Z,10.47
2018-10-12T00:31:14.684Z,10.77
2018-10-12T00:33:42.840Z,10.40
2018-10-12T00:36:11.016Z,9.10
2018-10-12T00:38:39.199Z,9.27
2018-10-12T00:41:07.657Z,8.20
2018-10-12T00:43:35.860Z,7.90
2018-10-12T00:46:04.058Z,8.30
2018-10-12T00:48:32.244Z,7.60
2018-10-12T00:51:00.380Z,9.00
2018-10-12T00:53:28.592Z,8.00
2018-10-12T00:55:56.792Z,8.37
2018-10-12T00:58:24.954Z,8.50
2018-10-12T01:00:53.161Z,9.73
2018-10-12T01:03:21.328Z,9.33
2018-10-12T01:05:49.533Z,8.70
2018-10-12T01:08:17.807Z,8.00
2018-10-12T01:10:46.009Z,9.10
2018-10-12T01:13:14.305Z,9.10
2018-10-12T01:15:42.536Z,8.27
2018-10-12T01:18:10.737Z,7.60
2018-10-12T01:20:39.097Z,8.33
2018-10-12T01:23:07.415Z,9.03
2018-10-12T01:25:35.705Z,9.10
2018-10-12T01:28:04.033Z,9.37
2018-10-12T01:30:32.240Z,8.63
2018-10-12T01:33:02.461Z,9.47
2018-10-12T01:35:30.656Z,9.30
2018-10-12T01:37:59.524Z,8.30
2018-10-12T01:40:28.152Z,7.90
2018-10-12T01:42:56.397Z,8.60
2018-10-12T01:45:24.652Z,7.90
2018-10-12T01:47:52.933Z,8.20
2018-10-12T01:50:21.148Z,7.43
2018-10-12T01:52:49.417Z,8.33
2018-10-12T01:55:17.596Z,7.97
2018-10-12T01:57:45.818Z,8.20
2018-10-12T02:00:13.985Z,7.97
2018-10-12T02:02:42.420Z,8.10
2018-10-12T02:05:10.654Z,8.63
2018-10-12T02:07:38.876Z,8.10
2018-10-12T02:10:07.166Z,7.23
2018-10-12T02:12:35.325Z,8.30
2018-10-12T02:15:03.823Z,8.40
2018-10-12T02:17:32.037Z,8.20
2018-10-12T02:20:00.250Z,6.53
2018-10-12T02:22:28.444Z,7.93
2018-10-12T02:24:56.592Z,7.40
2018-10-12T02:27:24.864Z,7.50
2018-10-12T02:29:53.062Z,7.37
2018-10-12T02:32:21.250Z,7.30
2018-10-12T02:34:49.401Z,7.30
2018-10-12T02:37:17.596Z,7.80
2018-10-12T02:39:45.789Z,7.80
2018-10-12T02:42:13.992Z,8.00
2018-10-12T02:44:42.197Z,7.20
2018-10-12T02:47:10.389Z,7.83
2018-10-12T02:49:38.580Z,6.70
2018-10-12T02:52:07.108Z,7.43
2018-10-12T02:54:35.281Z,7.60
2018-10-12T02:57:03.472Z,7.10
2018-10-12T02:59:31.612Z,7.40
2018-10-12T03:01:59.825Z,7.67
2018-10-12T03:04:28.022Z,6.90
2018-10-12T03:06:56.181Z,7.27
2018-10-12T03:09:24.394Z,8.30
2018-10-12T03:11:55.472Z,7.63
2018-10-12T03:14:24.873Z,8.03
2018-10-12T03:16:53.071Z,7.00
2018-10-12T03:19:21.272Z,6.70
2018-10-12T03:21:49.472Z,6.50
2018-10-12T03:24:17.636Z,7.00
2018-10-12T03:26:45.905Z,6.37
2018-10-12T03:29:14.153Z,6.00
2018-10-12T03:31:42.356Z,5.80
2018-10-12T03:34:10.629Z,7.27
2018-10-12T03:36:39.136Z,7.43
2018-10-12T03:39:07.910Z,7.10
2018-10-12T03:41:42.701Z,6.90
2018-10-12T03:44:10.936Z,6.67
2018-10-12T03:46:39.478Z,6.50
2018-10-12T03:49:07.749Z,5.87
2018-10-12T03:51:35.964Z,6.70
2018-10-12T03:54:04.150Z,6.90
2018-10-12T03:56:32.393Z,6.73
2018-10-12T03:59:00.577Z,6.97
2018-10-12T04:01:28.786Z,7.30
2018-10-12T04:03:57.013Z,6.90
2018-10-12T04:06:25.269Z,6.37
2018-10-12T04:08:53.484Z,7.97
2018-10-12T04:11:21.634Z,6.70
2018-10-12T04:13:49.859Z,7.83
2018-10-12T04:16:18.025Z,7.80
2018-10-12T04:18:46.261Z,7.13
2018-10-12T04:21:14.451Z,8.00
2018-10-12T04:23:42.605Z,6.90
2018-10-12T04:26:11.006Z,7.17
2018-10-12T04:28:39.237Z,7.77
2018-10-12T04:31:07.433Z,7.80
2018-10-12T04:33:35.633Z,7.27
2018-10-12T04:36:03.902Z,7.70
2018-10-12T04:39:41.497Z,6.57
2018-10-12T04:42:09.673Z,6.33
2018-10-12T04:44:37.981Z,6.20
2018-10-12T04:47:06.927Z,8.10
2018-10-12T04:49:35.701Z,6.77
2018-10-12T04:52:04.028Z,6.73
2018-10-12T04:54:32.270Z,9.53
2018-10-12T04:57:00.485Z,7.07
2018-10-12T04:59:29.242Z,7.47
2018-10-12T05:01:57.552Z,7.10
2018-10-12T05:04:25.816Z,7.03
2018-10-12T05:06:54.041Z,7.40
2018-10-12T05:09:22.265Z,7.90
2018-10-12T05:11:50.501Z,7.23
2018-10-12T05:14:18.697Z,7.37
2018-10-12T05:16:46.942Z,8.13
2018-10-12T05:19:15.160Z,8.70
2018-10-12T05:21:43.350Z,8.50
2018-10-12T05:24:11.543Z,7.87
2018-10-12T05:26:39.769Z,7.60
2018-10-12T05:29:08.005Z,7.30
2018-10-12T05:31:36.292Z,7.60
2018-10-12T05:34:04.492Z,7.30
2018-10-12T05:36:32.664Z,7.10
2018-10-12T05:39:00.856Z,7.13
2018-10-12T05:41:29.049Z,7.40
2018-10-12T05:43:57.232Z,6.80
2018-10-12T05:46:25.465Z,7.40
2018-10-12T05:49:04.717Z,7.30
2018-10-12T05:51:33.211Z,7.03
2018-10-12T05:54:01.481Z,7.37
2018-10-12T05:56:31.532Z,8.00
2018-10-12T05:59:00.446Z,8.47
2018-10-12T06:01:28.795Z,7.27
2018-10-12T06:03:56.988Z,6.97
2018-10-12T06:06:25.204Z,8.10
2018-10-12T06:08:54.696Z,6.43
2018-10-12T06:11:23.087Z,5.87
2018-10-12T06:13:51.241Z,7.77
2018-10-12T06:16:19.445Z,7.43
2018-10-12T06:18:47.638Z,8.07
2018-10-12T06:21:15.834Z,7.90
2018-10-12T06:23:44.021Z,8.13
2018-10-12T06:26:12.511Z,7.00
2018-10-12T06:28:40.765Z,8.40
2018-10-12T06:31:09.572Z,8.83
2018-10-12T06:33:37.805Z,7.70
2018-10-12T06:36:06.061Z,7.87
2018-10-12T06:38:34.230Z,7.77
2018-10-12T06:41:02.526Z,7.33
2018-10-12T06:43:30.700Z,7.30
2018-10-12T06:45:59.116Z,7.50
2018-10-12T06:48:27.317Z,6.50
2018-10-12T06:50:55.573Z,8.20
2018-10-12T06:53:23.785Z,6.57
2018-10-12T06:55:52.018Z,7.30
2018-10-12T06:58:20.248Z,7.67
2018-10-12T07:00:48.509Z,7.47
2018-10-12T07:03:16.829Z,7.70
2018-10-12T07:05:45.214Z,7.40
2018-10-12T07:08:13.482Z,8.03
2018-10-12T07:10:41.745Z,5.70
2018-10-12T07:13:09.940Z,6.00
2018-10-12T07:15:38.248Z,6.77
2018-10-12T07:18:06.451Z,6.70
2018-10-12T07:20:34.733Z,6.10
2018-10-12T07:23:02.938Z,6.07
2018-10-12T07:25:31.125Z,4.80
2018-10-12T07:27:59.349Z,4.70
2018-10-12T07:30:27.578Z,4.93
2018-10-12T07:32:55.791Z,5.43
2018-10-12T07:35:24.009Z,5.00
2018-10-12T07:37:52.189Z,4.87
2018-10-12T07:40:20.389Z,5.20
2018-10-12T07:42:48.649Z,5.00
2018-10-12T07:45:16.856Z,4.10
2018-10-12T07:47:45.065Z,4.37
2018-10-12T07:50:13.285Z,4.90
2018-10-12T07:52:41.495Z,4.93
2018-10-12T07:55:09.665Z,5.00
2018-10-12T07:57:37.864Z,5.80
2018-10-12T08:00:06.802Z,5.60
2018-10-12T08:02:35.016Z,4.80
2018-10-12T08:05:03.197Z,5.20
2018-10-12T08:07:31.420Z,4.87
2018-10-12T08:09:59.605Z,5.27
2018-10-12T08:12:27.817Z,5.50
2018-10-12T08:14:56.034Z,5.10
2018-10-12T08:17:24.254Z,5.07
2018-10-12T08:19:52.580Z,5.43
2018-10-12T08:22:20.781Z,4.53
2018-10-12T08:24:49.005Z,4.57
2018-10-12T08:27:17.224Z,4.60
2018-10-12T08:29:45.433Z,4.67
2018-10-12T08:32:13.824Z,4.37
2018-10-12T08:34:41.980Z,4.33
2018-10-12T08:37:10.181Z,4.10
2018-10-12T08:39:38.373Z,4.20
2018-10-12T08:42:06.732Z,4.03
2018-10-12T08:44:34.937Z,4.03
2018-10-12T08:47:03.138Z,4.73
2018-10-12T08:49:31.354Z,4.87
2018-10-12T08:51:59.575Z,4.50
2018-10-12T08:54:27.793Z,4.70
2018-10-12T08:56:55.998Z,4.50
2018-10-12T08:59:24.198Z,3.93
2018-10-12T09:01:52.409Z,4.10
2018-10-12T09:04:20.637Z,4.10
2018-10-12T09:06:48.868Z,3.50
2018-10-12T09:09:17.066Z,3.60
2018-10-12T09:11:45.269Z,3.87
2018-10-12T09:14:13.503Z,4.07
2018-10-12T09:16:41.684Z,4.17
2018-10-12T09:19:09.905Z,3.53
2018-10-12T09:21:38.145Z,3.00
2018-10-12T09:24:06.352Z,3.90
2018-10-12T09:26:34.545Z,3.20
2018-10-12T09:29:02.792Z,3.17
2018-10-12T09:31:31.080Z,2.77
2018-10-12T09:33:59.268Z,3.47
2018-10-12T09:36:27.477Z,3.10
2018-10-12T09:38:55.715Z,3.30
2018-10-12T09:41:23.892Z,3.07
2018-10-12T09:43:52.094Z,2.93
2018-10-12T09:46:20.996Z,3.13
2018-10-12T09:48:49.213Z,3.30
2018-10-12T09:51:17.477Z,3.60
2018-10-12T09:53:45.638Z,3.70
2018-10-12T09:56:13.837Z,3.50
2018-10-12T09:58:42.025Z,3.10
2018-10-12T10:01:15.916Z,3.53
2018-10-12T10:03:49.470Z,3.80
2018-10-12T10:06:17.684Z,3.07
2018-10-12T10:08:45.951Z,2.63
2018-10-12T10:11:14.130Z,3.53
2018-10-12T10:13:42.378Z,3.20
2018-10-12T10:16:10.648Z,2.83
2018-10-12T10:18:38.930Z,2.90
2018-10-12T10:21:07.133Z,3.57
2018-10-12T10:23:35.425Z,3.40
2018-10-12T10:26:03.608Z,3.50
2018-10-12T10:28:31.817Z,3.27
2018-10-12T10:31:00.021Z,3.57
2018-10-12T10:33:28.225Z,3.23
2018-10-12T10:35:56.437Z,2.83
2018-10-12T10:38:24.622Z,3.40
2018-10-12T10:40:52.820Z,3.30
2018-10-12T10:43:20.989Z,4.07
2018-10-12T10:45:49.198Z,3.13
2018-10-12T10:48:17.912Z,2.80
2018-10-12T10:50:46.807Z,3.17
2018-10-12T10:53:16.247Z,2.70
2018-10-12T10:55:45.458Z,3.33
2018-10-12T10:58:14.593Z,2.70
2018-10-12T11:00:43.463Z,3.10
2018-10-12T11:03:11.724Z,3.37
2018-10-12T11:05:39.923Z,3.20
2018-10-12T11:08:08.193Z,3.97
2018-10-12T11:10:36.357Z,2.70
2018-10-12T11:13:04.618Z,2.57
2018-10-12T11:15:32.827Z,2.80
2018-10-12T11:18:00.981Z,3.20
2018-10-12T11:20:29.200Z,2.90
2018-10-12T11:22:57.361Z,3.43
2018-10-12T11:25:25.614Z,2.93
2018-10-12T11:27:53.889Z,2.83
2018-10-12T11:30:22.157Z,3.63
2018-10-12T11:32:50.558Z,2.83
2018-10-12T11:35:18.771Z,3.23
2018-10-12T11:37:47.073Z,2.80
2018-10-12T11:40:15.289Z,2.80
2018-10-12T11:42:54.589Z,2.60
2018-10-12T11:45:22.890Z,2.97
2018-10-12T11:47:51.378Z,3.07
2018-10-12T11:50:19.625Z,2.97
2018-10-12T11:52:47.847Z,3.30
2018-10-12T11:55:16.056Z,2.97
2018-10-12T11:57:44.232Z,2.67
2018-10-12T12:00:12.453Z,3.27
2018-10-12T12:02:40.657Z,3.33
2018-10-12T12:05:08.905Z,2.63
2018-10-12T12:07:37.193Z,3.57
2018-10-12T12:10:05.471Z,3.00
2018-10-12T12:12:33.680Z,2.50
2018-10-12T12:15:01.942Z,3.50
2018-10-12T12:17:30.159Z,2.50
2018-10-12T12:19:58.363Z,3.33
2018-10-12T12:22:26.610Z,3.00
2018-10-12T12:24:55.109Z,3.10
2018-10-12T12:27:23.388Z,3.20
2018-10-12T12:29:51.611Z,3.30
2018-10-12T12:32:19.853Z,3.20
2018-10-12T12:34:48.248Z,3.10
2018-10-12T12:37:16.456Z,2.90
2018-10-12T12:39:44.673Z,2.90
2018-10-12T12:42:12.913Z,3.03
2018-10-12T12:44:41.077Z,3.43
2018-10-12T12:47:09.320Z,3.17
2018-10-12T12:49:37.514Z,3.00
2018-10-12T12:52:05.741Z,3.20
2018-10-12T12:54:33.941Z,2.80
2018-10-12T12:57:02.165Z,3.00
2018-10-12T12:59:30.393Z,2.63
2018-10-12T13:01:58.575Z,2.80
2018-10-12T13:04:26.821Z,3.13
2018-10-12T13:06:55.182Z,2.50
2018-10-12T13:09:30.192Z,3.00
2018-10-12T13:11:58.394Z,3.00
2018-10-12T13:14:29.501Z,2.87
2018-10-12T13:16:57.747Z,2.50
2018-10-12T13:19:25.913Z,2.60
2018-10-12T13:21:54.243Z,2.70
2018-10-12T13:24:22.651Z,2.40
2018-10-12T13:26:50.813Z,3.50
2018-10-12T13:29:19.501Z,2.50
2018-10-12T13:31:48.014Z,3.30
2018-10-12T13:34:16.241Z,2.60
2018-10-12T13:36:44.436Z,3.10
2018-10-12T13:39:13.231Z,3.00
2018-10-12T13:41:41.521Z,2.87
2018-10-12T13:44:10.499Z,2.40
2018-10-12T13:46:38.835Z,2.10
2018-10-12T13:49:07.377Z,2.90
2018-10-12T13:51:35.599Z,2.80
2018-10-12T13:54:03.876Z,2.40
2018-10-12T13:56:32.141Z,2.40
2018-10-12T13:59:00.359Z,2.63
2018-10-12T14:01:28.541Z,2.60
2018-10-12T14:03:56.757Z,2.90
2018-10-12T14:06:24.979Z,2.50
2018-10-12T14:08:54.571Z,2.37
2018-10-12T14:11:22.910Z,2.70
2018-10-12T14:13:51.109Z,3.40
2018-10-12T14:16:19.322Z,2.50
2018-10-12T14:18:47.844Z,2.73
2018-10-12T14:21:15.905Z,2.40
2018-10-12T14:23:44.122Z,2.57
2018-10-12T14:26:12.314Z,2.40
2018-10-12T14:28:40.541Z,2.23
2018-10-12T14:31:09.757Z,2.27
2018-10-12T14:33:37.979Z,2.47
2018-10-12T14:36:06.242Z,2.20
2018-10-12T14:38:34.466Z,2.47
2018-10-12T14:41:02.696Z,2.70
2018-10-12T14:43:30.856Z,2.63
2018-10-12T14:45:59.118Z,2.73
2018-10-12T14:48:27.292Z,2.10
2018-10-12T14:50:55.512Z,2.50
2018-10-12T14:53:23.735Z,2.60
2018-10-12T14:55:52.328Z,2.30
2018-10-12T14:58:20.540Z,2.80
2018-10-12T15:00:48.745Z,2.90
2018-10-12T15:03:16.957Z,2.27
2018-10-12T15:05:45.130Z,2.67
2018-10-12T15:08:13.358Z,2.37
2018-10-12T15:10:41.589Z,2.83
2018-10-12T15:13:09.745Z,2.23
2018-10-12T15:15:38.165Z,2.57
2018-10-12T15:18:06.337Z,2.60
2018-10-12T15:20:34.605Z,2.60
2018-10-12T15:23:02.809Z,2.60
2018-10-12T15:25:31.034Z,3.00
2018-10-12T15:27:59.261Z,2.13
2018-10-12T15:30:27.499Z,3.13
2018-10-12T15:32:55.706Z,2.90
2018-10-12T15:35:23.975Z,3.07
2018-10-12T15:37:52.213Z,3.07
2018-10-12T15:40:20.530Z,2.20
2018-10-12T15:42:48.778Z,2.70
2018-10-12T15:45:17.024Z,3.20
2018-10-12T15:47:45.226Z,2.70
2018-10-12T15:50:13.434Z,2.40
2018-10-12T15:52:41.734Z,2.90
2018-10-12T15:55:10.058Z,2.57
2018-10-12T15:57:38.273Z,2.50
2018-10-12T16:00:06.528Z,2.60
2018-10-12T16:02:34.744Z,2.73
2018-10-12T16:05:02.989Z,2.50
2018-10-12T16:07:31.201Z,3.30
2018-10-12T16:09:59.629Z,2.50
2018-10-12T16:12:27.841Z,2.53
2018-10-12T16:14:56.063Z,2.40
2018-10-12T16:17:24.235Z,2.97
2018-10-12T16:19:52.449Z,2.70
2018-10-12T16:22:20.649Z,2.80
2018-10-12T16:24:59.693Z,2.50
2018-10-12T16:27:27.921Z,2.50
2018-10-12T16:29:56.109Z,3.10
2018-10-12T16:32:24.332Z,2.77
2018-10-12T16:34:52.529Z,2.90
2018-10-12T16:37:20.733Z,3.30
2018-10-12T16:39:48.912Z,2.80
2018-10-12T16:42:17.122Z,3.73
2018-10-12T16:44:45.335Z,3.23
2018-10-12T16:47:13.592Z,3.37
2018-10-12T16:49:41.749Z,3.13
2018-10-12T16:52:10.005Z,3.90
2018-10-12T16:54:38.196Z,3.93
2018-10-12T16:57:06.558Z,4.00
2018-10-12T16:59:34.782Z,4.13
2018-10-12T17:02:02.976Z,3.93
2018-10-12T17:04:31.209Z,3.70
2018-10-12T17:06:59.404Z,4.77
2018-10-12T17:09:27.608Z,5.57
2018-10-12T17:11:55.776Z,4.40
2018-10-12T17:14:24.009Z,3.80
2018-10-12T17:16:52.517Z,4.43
2018-10-12T17:19:20.715Z,5.30
2018-10-12T17:21:48.954Z,5.53
2018-10-12T17:24:17.138Z,5.10
2018-10-12T17:26:45.477Z,5.10
2018-10-12T17:29:13.706Z,5.10
2018-10-12T17:31:41.926Z,5.07
2018-10-12T17:34:10.090Z,5.43
2018-10-12T17:36:38.295Z,4.63
2018-10-12T17:39:09.621Z,5.07
2018-10-12T17:41:37.975Z,4.83
2018-10-12T17:44:06.181Z,4.60
2018-10-12T17:46:35.182Z,5.50
2018-10-12T17:49:03.380Z,5.20
2018-10-12T17:51:31.633Z,4.90
2018-10-12T17:53:59.897Z,4.43
2018-10-12T17:56:28.144Z,5.10
2018-10-12T17:58:56.426Z,5.63
2018-10-12T18:01:24.669Z,4.87
2018-10-12T18:03:52.873Z,5.93
2018-10-12T18:06:21.102Z,6.30
2018-10-12T18:08:49.672Z,5.80
2018-10-12T18:11:17.845Z,6.50
2018-10-12T18:13:46.101Z,8.67
2018-10-12T18:16:14.577Z,8.00
2018-10-12T18:18:42.784Z,6.33
2018-10-12T18:21:11.064Z,6.40
2018-10-12T18:23:39.263Z,6.33
2018-10-12T18:26:14.147Z,5.70
2018-10-12T18:28:42.402Z,6.30
2018-10-12T18:31:10.685Z,6.10
2018-10-12T18:33:38.876Z,5.87
2018-10-12T18:36:07.125Z,6.20
2018-10-12T18:38:35.337Z,6.50
2018-10-12T18:41:03.581Z,7.27
2018-10-12T18:43:31.732Z,7.40
2018-10-12T18:46:01.425Z,8.13
2018-10-12T18:48:29.637Z,7.27
2018-10-12T18:50:57.912Z,6.93
2018-10-12T18:53:26.175Z,8.00
2018-10-12T18:55:54.454Z,7.40
2018-10-12T18:58:22.665Z,7.60
2018-10-12T19:00:50.992Z,6.90
2018-10-12T19:03:19.236Z,6.90
2018-10-12T19:05:47.409Z,6.87
2018-10-12T19:08:15.617Z,7.40
2018-10-12T19:10:43.829Z,7.30
2018-10-12T19:13:12.013Z,7.60
2018-10-12T19:15:40.509Z,7.90
2018-10-12T19:18:08.683Z,8.10
2018-10-12T19:20:36.958Z,7.53
2018-10-12T19:23:05.362Z,7.77
2018-10-12T19:25:33.609Z,8.23
2018-10-12T19:28:01.841Z,9.17
2018-10-12T19:30:30.130Z,9.10
2018-10-12T19:32:58.474Z,10.37
2018-10-12T19:35:26.634Z,8.10
2018-10-12T19:37:54.997Z,7.50
2018-10-12T19:43:21.181Z,7.30
2018-10-12T19:45:49.453Z,7.90
2018-10-12T19:48:17.702Z,7.83
2018-10-12T19:50:46.369Z,9.17
2018-10-12T19:53:14.582Z,8.10
2018-10-12T19:55:42.809Z,7.37
2018-10-12T19:58:11.031Z,10.87
2018-10-12T20:00:39.286Z,8.83
2018-10-12T20:03:07.982Z,8.20
2018-10-12T20:05:36.209Z,9.20
2018-10-12T20:08:04.507Z,8.60
2018-10-12T20:10:32.774Z,10.33
2018-10-12T20:13:08.161Z,8.40
2018-10-12T20:15:36.413Z,8.07
2018-10-12T20:18:04.668Z,9.07
2018-10-12T20:20:32.921Z,8.97
2018-10-12T20:23:01.150Z,8.50
2018-10-12T20:25:29.433Z,8.20
2018-10-12T20:27:57.709Z,7.63
2018-10-12T20:30:25.970Z,7.90
2018-10-12T20:32:54.292Z,8.90
2018-10-12T20:35:22.625Z,9.20
2018-10-12T20:37:50.918Z,9.10
2018-10-12T20:40:19.201Z,7.63
2018-10-12T20:42:47.454Z,8.00
2018-10-12T20:45:15.717Z,9.73
2018-10-12T20:47:44.075Z,8.53
2018-10-12T20:50:12.585Z,8.10
2018-10-12T20:52:41.377Z,8.80
2018-10-12T20:55:10.038Z,7.40
2018-10-12T20:57:44.065Z,7.53
2018-10-12T21:00:13.032Z,9.43
2018-10-12T21:02:42.408Z,9.13
2018-10-12T21:05:10.977Z,9.30
2018-10-12T21:07:39.242Z,9.07
2018-10-12T21:10:07.723Z,10.00
2018-10-12T21:12:35.967Z,8.90
2018-10-12T21:15:04.652Z,9.27
2018-10-12T21:17:32.940Z,9.50
2018-10-12T21:20:01.485Z,8.37
2018-10-12T21:22:29.870Z,7.43
2018-10-12T21:24:58.161Z,8.97
2018-10-12T21:27:26.366Z,9.00
2018-10-12T21:29:54.614Z,8.63
2018-10-12T21:32:22.906Z,8.90
2018-10-12T21:34:51.128Z,8.30
2018-10-12T21:37:19.391Z,8.00
2018-10-12T21:39:47.591Z,8.50
2018-10-12T21:42:15.821Z,8.67
2018-10-12T21:44:44.068Z,8.47
2018-10-12T21:47:12.364Z,7.90
2018-10-12T21:49:40.613Z,8.30
2018-10-12T21:52:09.481Z,7.87
2018-10-12T21:54:37.737Z,8.47
2018-10-12T21:57:06.020Z,7.97
2018-10-12T21:59:34.300Z,7.97
2018-10-12T22:02:02.573Z,6.70
2018-10-12T22:04:30.822Z,7.00
2018-10-12T22:06:59.080Z,7.43
2018-10-12T22:09:27.273Z,7.80
2018-10-12T22:11:55.529Z,7.57
2018-10-12T22:14:23.721Z,7.70
2018-10-12T22:16:51.985Z,7.60
2018-10-12T22:19:20.372Z,6.80
2018-10-12T22:21:48.554Z,8.20
2018-10-12T22:24:16.811Z,8.03
2018-10-12T22:26:45.011Z,8.17
2018-10-12T22:29:13.299Z,8.63
2018-10-12T22:31:41.521Z,8.07
2018-10-12T22:34:09.749Z,8.67
2018-10-12T22:36:38.036Z,7.77
2018-10-12T22:39:08.160Z,7.90
2018-10-12T22:41:36.526Z,8.43
2018-10-12T22:44:04.767Z,7.40
2018-10-12T22:46:33.398Z,8.80
2018-10-12T22:49:01.636Z,8.07
2018-10-12T22:51:29.867Z,7.50
2018-10-12T22:53:58.090Z,7.93
2018-10-12T22:56:26.330Z,8.30
2018-10-12T22:58:54.534Z,7.90
2018-10-12T23:01:22.758Z,7.97
2018-10-12T23:03:50.966Z,7.23
2018-10-12T23:06:19.258Z,7.70
2018-10-12T23:08:47.475Z,7.63
2018-10-12T23:11:15.798Z,8.67
2018-10-12T23:13:43.990Z,7.67
2018-10-12T23:16:12.249Z,7.30
2018-10-12T23:18:40.546Z,8.03
2018-10-12T23:21:08.699Z,7.80
2018-10-12T23:23:36.951Z,7.97
2018-10-12T23:26:05.190Z,7.80
2018-10-12T23:28:33.470Z,8.60
2018-10-12T23:31:01.713Z,9.40
2018-10-12T23:33:41.097Z,7.30
2018-10-12T23:36:09.350Z,7.10
2018-10-12T23:38:37.629Z,7.60
2018-10-12T23:41:05.992Z,8.40
2018-10-12T23:43:34.460Z,9.30
2018-10-12T23:46:02.703Z,8.57
2018-10-12T23:48:30.974Z,8.83
2018-10-12T23:50:59.177Z,8.43
2018-10-12T23:53:27.472Z,8.20
2018-10-12T23:55:55.747Z,8.17
2018-10-12T23:58:23.999Z,8.03
